createdAt,value
2023-01-08T00:02:14.122Z,34.97
2023-01-08T00:05:17.519Z,33.25
2023-01-08T00:08:20.540Z,31.35
2023-01-08T00:11:23.768Z,29.52
2023-01-08T00:14:26.864Z,35.45
2023-01-08T00:17:30.318Z,38.42
2023-01-08T00:20:33.293Z,32.00
2023-01-08T00:23:36.964Z,32.33
2023-01-08T00:26:39.856Z,32.83
2023-01-08T00:29:43.243Z,35.35
2023-01-08T00:32:46.275Z,36.33
2023-01-08T00:35:49.587Z,33.10
2023-01-08T00:38:52.612Z,37.00
2023-01-08T00:41:56.340Z,35.35
2023-01-08T00:44:59.243Z,34.83
2023-01-08T00:48:02.487Z,38.67
2023-01-08T00:51:07.105Z,38.10
2023-01-08T00:54:11.793Z,35.00
2023-01-08T00:57:14.698Z,38.58
2023-01-08T01:00:18.334Z,32.42
2023-01-08T01:03:21.458Z,34.83
2023-01-08T01:06:24.713Z,32.70
2023-01-08T01:09:27.714Z,33.08
2023-01-08T01:12:31.003Z,35.42
2023-01-08T01:15:34.355Z,32.92
2023-01-08T01:18:37.613Z,34.22
2023-01-08T01:21:40.745Z,32.17
2023-01-08T01:24:44.259Z,39.03
2023-01-08T01:27:47.239Z,33.15
2023-01-08T01:30:55.717Z,37.17
2023-01-08T01:33:59.056Z,35.08
2023-01-08T01:37:02.791Z,34.83
2023-01-08T01:40:06.346Z,34.25
2023-01-08T01:43:15.924Z,32.97
2023-01-08T01:46:24.372Z,37.55
2023-01-08T01:49:29.256Z,45.42
2023-01-08T01:52:38.868Z,35.63
2023-01-08T01:55:44.495Z,32.08
2023-01-08T02:01:51.984Z,36.53
2023-01-08T02:04:55.389Z,33.90
2023-01-08T02:08:12.221Z,33.35
2023-01-08T02:11:25.840Z,37.58
2023-01-08T02:14:35.248Z,37.67
2023-01-08T02:17:50.395Z,39.42
2023-01-08T02:21:02.131Z,32.83
2023-01-08T02:24:14.892Z,38.97
2023-01-08T02:27:19.121Z,39.17
2023-01-08T02:30:22.239Z,38.50
2023-01-08T02:33:28.370Z,41.47
2023-01-08T02:36:38.842Z,34.92
2023-01-08T02:39:52.202Z,43.80
2023-01-08T02:42:59.264Z,36.85
2023-01-08T02:46:02.913Z,33.95
2023-01-08T02:49:10.576Z,33.05
2023-01-08T02:52:15.269Z,39.63
2023-01-08T02:55:18.958Z,34.10
2023-01-08T02:58:24.008Z,42.47
2023-01-08T03:01:27.810Z,35.83
2023-01-08T03:04:37.665Z,39.25
2023-01-08T03:07:40.949Z,32.92
2023-01-08T03:10:49.241Z,39.28
2023-01-08T03:14:00.915Z,32.47
2023-01-08T03:17:13.274Z,38.03
2023-01-08T03:20:19.665Z,37.90
2023-01-08T03:23:24.104Z,42.55
2023-01-08T03:26:27.986Z,37.20
2023-01-08T03:29:32.188Z,35.45
2023-01-08T03:32:37.053Z,32.33
2023-01-08T03:35:42.065Z,42.28
2023-01-08T03:38:49.073Z,43.92
2023-01-08T03:41:57.839Z,38.00
2023-01-08T03:45:01.050Z,39.15
2023-01-08T03:48:06.204Z,42.62
2023-01-08T03:54:17.083Z,43.87
2023-01-08T03:57:21.398Z,40.17
2023-01-08T04:00:24.680Z,37.22
2023-01-08T04:03:27.919Z,35.88
2023-01-08T04:06:30.925Z,30.77
2023-01-08T04:09:34.413Z,30.65
2023-01-08T04:12:37.500Z,35.38
2023-01-08T04:15:40.793Z,37.05
2023-01-08T04:18:43.786Z,37.70
2023-01-08T04:21:47.018Z,36.33
2023-01-08T04:24:49.999Z,36.60
2023-01-08T04:27:53.168Z,34.05
2023-01-08T04:30:57.335Z,34.72
2023-01-08T04:34:00.624Z,34.27
2023-01-08T04:37:04.057Z,33.53
2023-01-08T04:40:07.780Z,28.25
2023-01-08T04:43:10.855Z,33.80
2023-01-08T04:46:14.144Z,34.08
2023-01-08T04:49:17.732Z,31.30
2023-01-08T04:52:20.920Z,36.08
2023-01-08T04:55:23.824Z,31.75
2023-01-08T04:58:27.257Z,33.28
2023-01-08T05:01:30.372Z,31.37
2023-01-08T05:04:33.750Z,31.40
2023-01-08T05:07:36.862Z,31.95
2023-01-08T05:10:40.082Z,31.23
2023-01-08T05:13:43.013Z,32.38
2023-01-08T05:16:47.637Z,34.03
2023-01-08T05:22:54.977Z,32.67
2023-01-08T05:25:59.251Z,31.90
2023-01-08T05:29:02.508Z,33.03
2023-01-08T05:32:07.239Z,33.30
2023-01-08T05:35:10.901Z,34.60
2023-01-08T05:38:13.887Z,31.52
2023-01-08T05:41:17.133Z,31.27
2023-01-08T05:44:20.029Z,33.65
2023-01-08T05:47:23.268Z,32.55
2023-01-08T05:50:26.746Z,32.53
2023-01-08T05:53:32.181Z,34.15
2023-01-08T05:56:35.513Z,34.25
2023-01-08T05:59:38.768Z,34.55
2023-01-08T06:02:46.951Z,32.58
2023-01-08T06:05:50.695Z,30.67
2023-01-08T06:08:55.042Z,33.88
2023-01-08T06:11:58.322Z,33.65
2023-01-08T06:15:02.350Z,35.50
2023-01-08T06:18:05.687Z,29.12
2023-01-08T06:21:08.776Z,30.00
2023-01-08T06:24:12.309Z,29.02
2023-01-08T06:27:15.314Z,34.97
2023-01-08T06:30:18.638Z,30.45
2023-01-08T06:33:21.843Z,27.98
2023-01-08T06:36:25.303Z,31.42
2023-01-08T06:39:28.287Z,29.50
2023-01-08T06:42:31.565Z,33.53
2023-01-08T06:45:34.538Z,29.60
2023-01-08T06:48:38.303Z,30.55
2023-01-08T06:51:41.356Z,28.48
2023-01-08T06:54:45.066Z,31.95
2023-01-08T06:57:48.121Z,28.33
2023-01-08T07:00:51.453Z,28.45
2023-01-08T07:03:54.352Z,28.65
2023-01-08T07:06:57.761Z,32.17
2023-01-08T07:10:00.785Z,28.58
2023-01-08T07:13:04.247Z,30.60
2023-01-08T07:16:12.660Z,33.92
2023-01-08T07:19:16.163Z,34.13
2023-01-08T07:22:21.321Z,27.87
2023-01-08T07:25:25.946Z,28.73
2023-01-08T07:28:29.874Z,27.60
2023-01-08T07:31:33.895Z,28.10
2023-01-08T07:34:37.470Z,30.35
2023-01-08T07:37:41.678Z,31.05
2023-01-08T07:40:44.829Z,30.25
2023-01-08T07:43:48.958Z,24.48
2023-01-08T07:46:53.662Z,26.90
2023-01-08T07:49:57.785Z,25.58
2023-01-08T07:53:02.044Z,27.77
2023-01-08T07:59:11.879Z,26.83
2023-01-08T08:02:15.373Z,29.60
2023-01-08T08:05:18.823Z,29.67
2023-01-08T08:08:21.812Z,27.65
2023-01-08T08:11:25.118Z,26.37
2023-01-08T08:14:28.669Z,26.75
2023-01-08T08:17:32.168Z,24.12
2023-01-08T08:20:35.204Z,30.77
2023-01-08T08:23:38.491Z,25.58
2023-01-08T08:26:41.497Z,23.83
2023-01-08T08:29:44.904Z,27.83
2023-01-08T08:32:47.792Z,26.92
2023-01-08T08:35:52.625Z,24.60
2023-01-08T08:38:55.748Z,26.30
2023-01-08T08:42:00.110Z,24.83
2023-01-08T08:45:03.403Z,32.53
2023-01-08T08:48:08.053Z,26.40
2023-01-08T08:51:11.227Z,28.42
2023-01-08T08:54:14.866Z,25.60
2023-01-08T08:57:17.806Z,34.75
2023-01-08T09:00:21.212Z,27.95
2023-01-08T09:03:24.180Z,29.50
2023-01-08T09:06:27.922Z,23.73
2023-01-08T09:09:30.948Z,26.27
2023-01-08T09:12:34.491Z,28.27
2023-01-08T09:15:38.298Z,27.15
2023-01-08T09:18:41.715Z,28.45
2023-01-08T09:21:46.224Z,26.12
2023-01-08T09:24:49.693Z,28.75
2023-01-08T09:28:07.940Z,26.27
2023-01-08T09:31:10.935Z,26.12
2023-01-08T09:34:13.940Z,27.33
2023-01-08T09:37:17.286Z,31.37
2023-01-08T09:40:22.526Z,29.90
2023-01-08T09:43:29.819Z,29.17
2023-01-08T09:46:33.021Z,28.27
2023-01-08T09:49:44.730Z,26.10
2023-01-08T09:52:47.710Z,32.33
2023-01-08T09:56:11.065Z,28.25
2023-01-08T09:59:17.426Z,27.27
2023-01-08T10:02:23.509Z,24.75
2023-01-08T10:05:28.779Z,27.08
2023-01-08T10:08:31.798Z,30.65
2023-01-08T10:11:41.478Z,28.75
2023-01-08T10:14:48.241Z,30.77
2023-01-08T10:18:05.071Z,31.58
2023-01-08T10:21:14.602Z,36.45
2023-01-08T10:24:19.429Z,30.27
2023-01-08T10:27:23.819Z,30.37
2023-01-08T10:30:33.307Z,37.08
2023-01-08T10:33:42.730Z,29.00
2023-01-08T10:36:46.051Z,28.00
2023-01-08T10:39:49.725Z,28.83
2023-01-08T10:42:53.575Z,29.95
2023-01-08T10:46:08.018Z,27.90
2023-01-08T10:49:23.131Z,25.48
2023-01-08T10:55:40.819Z,23.05
2023-01-08T10:58:43.991Z,23.50
2023-01-08T11:01:49.993Z,23.85
2023-01-08T11:04:54.523Z,24.75
2023-01-08T11:07:59.851Z,24.08
2023-01-08T11:11:03.165Z,18.98
2023-01-08T11:14:30.068Z,18.13
2023-01-08T11:20:36.880Z,18.27
2023-01-08T11:23:39.930Z,16.10
2023-01-08T11:26:47.296Z,15.18
2023-01-08T11:30:13.468Z,16.58
2023-01-08T11:33:23.362Z,14.07
2023-01-08T11:36:35.376Z,13.82
2023-01-08T11:39:39.235Z,14.40
2023-01-08T11:42:48.340Z,15.38
2023-01-08T11:46:04.344Z,14.65
2023-01-08T11:49:29.344Z,14.52
2023-01-08T11:52:46.429Z,16.75
2023-01-08T11:56:20.197Z,16.30
2023-01-08T11:59:33.757Z,13.07
2023-01-08T12:02:52.005Z,15.50
2023-01-08T12:06:05.404Z,14.18
2023-01-08T12:09:39.787Z,15.85
2023-01-08T12:12:58.723Z,12.93
2023-01-08T12:16:07.083Z,16.37
2023-01-08T12:19:23.637Z,19.95
2023-01-08T12:22:39.186Z,16.12
2023-01-08T12:25:54.641Z,18.27
2023-01-08T12:29:10.542Z,17.73
2023-01-08T12:32:26.192Z,16.37
2023-01-08T12:35:33.531Z,16.95
2023-01-08T12:38:45.042Z,14.55
2023-01-08T12:41:50.328Z,15.70
2023-01-08T12:44:56.019Z,15.77
2023-01-08T12:48:15.258Z,16.40
2023-01-08T12:51:19.399Z,15.23
2023-01-08T12:54:34.908Z,18.90
2023-01-08T12:57:46.548Z,13.82
2023-01-08T13:01:06.363Z,14.77
2023-01-08T13:04:10.058Z,13.23
2023-01-08T13:07:18.675Z,13.32
2023-01-08T13:10:40.100Z,13.18
2023-01-08T13:13:45.406Z,14.00
2023-01-08T13:17:02.414Z,13.32
2023-01-08T13:20:07.018Z,11.93
2023-01-08T13:23:24.246Z,14.82
2023-01-08T13:26:32.202Z,16.50
2023-01-08T13:29:44.228Z,12.57
2023-01-08T13:32:48.716Z,12.63
2023-01-08T13:35:52.233Z,10.98
2023-01-08T13:39:04.433Z,9.75
2023-01-08T13:42:21.863Z,11.95
2023-01-08T13:45:29.309Z,12.00
2023-01-08T13:48:38.405Z,11.60
2023-01-08T13:51:42.208Z,11.25
2023-01-08T13:54:45.492Z,11.30
2023-01-08T13:57:58.974Z,11.68
2023-01-08T14:01:03.312Z,12.37
2023-01-08T14:04:06.539Z,12.70
2023-01-08T14:07:16.069Z,11.93
2023-01-08T14:10:20.137Z,12.75
2023-01-08T14:13:29.763Z,16.83
2023-01-08T14:16:33.570Z,24.95
2023-01-08T14:19:36.959Z,28.80
2023-01-08T14:22:42.071Z,33.97
2023-01-08T14:25:48.149Z,30.67
2023-01-08T14:28:52.842Z,35.28
2023-01-08T14:31:58.107Z,34.87
2023-01-08T14:35:02.890Z,35.90
2023-01-08T14:38:05.926Z,37.57
2023-01-08T14:41:14.024Z,39.17
2023-01-08T14:44:20.845Z,41.05
2023-01-08T14:47:31.190Z,37.78
2023-01-08T14:50:37.545Z,35.92
2023-01-08T14:53:47.048Z,37.25
2023-01-08T14:56:52.610Z,33.95
2023-01-08T14:59:59.388Z,39.45
2023-01-08T15:03:06.623Z,36.55
2023-01-08T15:06:35.540Z,35.78
2023-01-08T15:09:40.353Z,35.28
2023-01-08T15:12:43.949Z,38.17
2023-01-08T15:16:25.870Z,36.58
2023-01-08T15:19:30.068Z,38.55
2023-01-08T15:22:33.411Z,37.88
2023-01-08T15:25:36.930Z,40.58
2023-01-08T15:28:45.979Z,39.88
2023-01-08T15:31:49.828Z,38.90
2023-01-08T15:34:53.259Z,38.22
2023-01-08T15:37:56.482Z,37.72
2023-01-08T15:40:59.449Z,41.72
2023-01-08T15:44:03.073Z,38.22
2023-01-08T15:47:06.041Z,41.17
2023-01-08T15:50:10.578Z,39.20
2023-01-08T15:53:19.498Z,46.10
2023-01-08T15:56:22.807Z,46.53
2023-01-08T15:59:26.044Z,40.60
2023-01-08T16:02:29.773Z,39.67
2023-01-08T16:05:35.117Z,40.57
2023-01-08T16:08:38.518Z,37.35
2023-01-08T16:11:45.210Z,38.00
2023-01-08T16:18:31.258Z,34.63
2023-01-08T16:24:54.990Z,47.22
2023-01-08T16:27:58.304Z,40.72
2023-01-08T16:31:01.919Z,42.90
2023-01-08T16:34:10.440Z,38.28
2023-01-08T16:37:15.066Z,39.97
2023-01-08T16:40:19.256Z,36.50
2023-01-08T16:43:24.268Z,36.63
2023-01-08T16:46:28.101Z,33.43
2023-01-08T16:49:35.989Z,34.67
2023-01-08T16:52:39.873Z,33.45
2023-01-08T16:55:44.400Z,21.50
2023-01-08T16:58:50.782Z,21.00
2023-01-08T17:01:54.897Z,24.77
2023-01-08T17:04:58.389Z,20.00
2023-01-08T17:08:02.157Z,17.23
2023-01-08T17:11:15.038Z,24.27
2023-01-08T17:14:18.805Z,18.33
2023-01-08T17:17:22.528Z,15.60
2023-01-08T17:20:26.505Z,14.57
2023-01-08T17:23:30.352Z,21.85
2023-01-08T17:26:34.072Z,20.55
2023-01-08T17:29:37.685Z,15.75
2023-01-08T17:32:41.166Z,12.07
2023-01-08T17:35:46.103Z,14.93
2023-01-08T17:38:50.964Z,13.68
2023-01-08T17:42:12.757Z,13.63
2023-01-08T17:45:17.455Z,13.23
2023-01-08T17:48:21.310Z,13.40
2023-01-08T17:51:26.677Z,13.62
2023-01-08T17:54:31.499Z,13.98
2023-01-08T17:57:35.732Z,12.13
2023-01-08T18:00:39.324Z,12.82
2023-01-08T18:03:43.873Z,14.00
2023-01-08T18:06:47.541Z,15.32
2023-01-08T18:09:54.577Z,14.60
2023-01-08T18:12:58.285Z,12.98
2023-01-08T18:16:03.942Z,19.73
2023-01-08T18:19:07.900Z,24.73
2023-01-08T18:22:12.213Z,23.92
2023-01-08T18:25:15.547Z,23.00
2023-01-08T18:28:20.670Z,26.48
2023-01-08T18:31:24.356Z,20.05
2023-01-08T18:34:28.416Z,18.85
2023-01-08T18:37:33.294Z,17.77
2023-01-08T18:40:38.321Z,19.08
2023-01-08T18:43:45.111Z,19.52
2023-01-08T18:46:49.949Z,15.40
2023-01-08T18:49:55.054Z,16.20
2023-01-08T18:53:00.572Z,14.27
2023-01-08T18:59:11.926Z,16.90
2023-01-08T19:02:24.861Z,15.43
2023-01-08T19:05:29.411Z,14.07
2023-01-08T19:08:33.086Z,13.88
2023-01-08T19:11:37.691Z,12.93
2023-01-08T19:14:41.915Z,13.82
2023-01-08T19:17:46.850Z,16.30
2023-01-08T19:20:51.922Z,15.23
2023-01-08T19:23:56.879Z,12.13
2023-01-08T19:27:00.122Z,12.10
2023-01-08T19:30:05.235Z,12.95
2023-01-08T19:33:08.774Z,14.32
2023-01-08T19:36:16.760Z,18.20
2023-01-08T19:39:21.103Z,43.70
2023-01-08T19:42:45.722Z,32.42
2023-01-08T19:45:49.693Z,36.78
2023-01-08T19:49:01.798Z,17.73
2023-01-08T19:52:09.231Z,19.90
2023-01-08T19:55:13.285Z,16.42
2023-01-08T19:58:20.967Z,13.77
2023-01-08T20:01:27.759Z,13.27
2023-01-08T20:04:36.922Z,13.48
2023-01-08T20:07:40.724Z,9.43
2023-01-08T20:10:45.025Z,10.90
2023-01-08T20:13:49.798Z,14.63
2023-01-08T20:16:55.317Z,13.02
2023-01-08T20:19:59.162Z,11.10
2023-01-08T20:23:03.975Z,11.00
2023-01-08T20:26:11.987Z,12.07
2023-01-08T20:29:18.203Z,27.37
2023-01-08T20:32:23.595Z,22.55
2023-01-08T20:35:28.984Z,15.73
2023-01-08T20:38:32.828Z,14.82
2023-01-08T20:41:37.024Z,20.40
2023-01-08T20:47:48.505Z,10.70
2023-01-08T20:51:01.489Z,9.65
2023-01-08T20:54:08.692Z,21.70
2023-01-08T20:57:12.476Z,24.40
2023-01-08T21:00:16.656Z,17.90
2023-01-08T21:03:20.328Z,25.10
2023-01-08T21:06:26.178Z,28.45
2023-01-08T21:09:30.681Z,21.67
2023-01-08T21:12:37.326Z,23.02
2023-01-08T21:15:41.911Z,16.25
2023-01-08T21:18:47.770Z,20.20
2023-01-08T21:21:50.949Z,14.52
2023-01-08T21:24:55.680Z,10.93
2023-01-08T21:28:00.081Z,9.98
2023-01-08T21:31:06.348Z,9.73
2023-01-08T21:34:11.633Z,9.75
2023-01-08T21:37:15.814Z,9.60
2023-01-08T21:40:19.144Z,9.57
2023-01-08T21:43:41.106Z,11.00
2023-01-08T21:46:44.037Z,10.30
2023-01-08T21:49:47.446Z,12.00
2023-01-08T21:53:08.949Z,7.25
2023-01-08T21:56:14.580Z,11.52
2023-01-08T21:59:17.732Z,12.20
2023-01-08T22:02:23.338Z,9.32
2023-01-08T22:05:28.823Z,11.90
2023-01-08T22:08:32.310Z,15.70
2023-01-08T22:11:35.534Z,16.05
2023-01-08T22:14:38.567Z,16.90
2023-01-08T22:17:41.869Z,19.02
2023-01-08T22:20:47.464Z,9.93
2023-01-08T22:23:50.845Z,13.13
2023-01-08T22:26:54.317Z,10.20
2023-01-08T22:29:59.357Z,9.40
2023-01-08T22:33:03.062Z,13.10
2023-01-08T22:36:08.874Z,8.13
2023-01-08T22:39:13.937Z,10.30
2023-01-08T22:42:17.395Z,7.68
2023-01-08T22:45:21.058Z,6.80
2023-01-08T22:48:24.835Z,8.20
2023-01-08T22:51:27.957Z,7.50
2023-01-08T22:54:31.273Z,6.93
2023-01-08T22:57:34.510Z,8.88
2023-01-08T23:00:38.369Z,6.35
2023-01-08T23:03:44.837Z,7.25
2023-01-08T23:06:48.217Z,7.85
2023-01-08T23:09:51.220Z,7.47
2023-01-08T23:12:55.297Z,5.05
2023-01-08T23:15:58.324Z,6.90
2023-01-08T23:19:01.771Z,6.87
2023-01-08T23:22:05.005Z,5.60
2023-01-08T23:25:09.350Z,7.55
2023-01-08T23:28:13.484Z,6.12
2023-01-08T23:31:19.882Z,6.63
2023-01-08T23:34:24.363Z,6.50
2023-01-08T23:37:27.665Z,6.28
2023-01-08T23:40:32.479Z,5.40
2023-01-08T23:43:36.819Z,6.53
2023-01-08T23:46:40.297Z,6.45
2023-01-08T23:49:43.946Z,5.62
2023-01-08T23:52:46.950Z,4.87
2023-01-08T23:55:50.427Z,8.38
2023-01-08T23:58:53.996Z,7.05
